createdAt,value
2023-05-02T00:01:43.985Z,11.92
2023-05-02T00:04:11.127Z,11.92
2023-05-02T00:06:38.296Z,11.88
2023-05-02T00:09:05.187Z,11.89
2023-05-02T00:11:32.297Z,11.88
2023-05-02T00:13:59.134Z,11.88
2023-05-02T00:16:26.382Z,11.90
2023-05-02T00:18:53.180Z,11.95
2023-05-02T00:21:20.451Z,11.95
2023-05-02T00:23:47.207Z,11.92
2023-05-02T00:26:14.372Z,11.95
2023-05-02T00:28:41.182Z,12.07
2023-05-02T00:31:08.349Z,12.07
2023-05-02T00:33:35.210Z,12.14
2023-05-02T00:36:02.338Z,12.12
2023-05-02T00:38:29.173Z,12.15
2023-05-02T00:40:56.336Z,12.16
2023-05-02T00:43:23.196Z,12.18
2023-05-02T00:45:51.072Z,12.17
2023-05-02T00:48:20.627Z,12.20
2023-05-02T00:50:47.740Z,12.17
2023-05-02T00:53:15.328Z,12.20
2023-05-02T00:55:45.685Z,12.19
2023-05-02T00:58:18.584Z,12.17
2023-05-02T01:00:57.811Z,12.14
2023-05-02T01:03:37.458Z,12.16
2023-05-02T01:06:20.144Z,12.20
2023-05-02T01:08:58.614Z,12.13
2023-05-02T01:11:39.632Z,12.11
2023-05-02T01:14:10.527Z,12.06
2023-05-02T01:16:41.178Z,12.03
2023-05-02T01:19:25.198Z,12.03
2023-05-02T01:21:54.275Z,12.05
2023-05-02T01:24:32.869Z,12.04
2023-05-02T01:27:18.650Z,12.08
2023-05-02T01:29:48.077Z,12.04
2023-05-02T01:32:16.297Z,12.04
2023-05-02T01:34:46.802Z,11.93
2023-05-02T01:37:17.962Z,11.95
2023-05-02T01:39:45.848Z,11.92
2023-05-02T01:42:15.078Z,11.89
2023-05-02T01:44:43.502Z,11.92
2023-05-02T01:47:14.188Z,11.90
2023-05-02T01:49:44.029Z,11.83
2023-05-02T01:52:14.122Z,11.83
2023-05-02T01:54:42.416Z,11.83
2023-05-02T01:57:11.720Z,11.84
2023-05-02T01:59:41.527Z,11.84
2023-05-02T02:02:10.786Z,11.83
2023-05-02T02:04:40.741Z,11.86
2023-05-02T02:07:10.947Z,11.81
2023-05-02T02:09:37.829Z,12.18
2023-05-02T02:12:11.187Z,12.12
2023-05-02T02:14:42.281Z,12.12
2023-05-02T02:17:16.508Z,12.00
2023-05-02T02:19:45.812Z,11.97
2023-05-02T02:22:15.230Z,11.95
2023-05-02T02:24:43.859Z,11.93
2023-05-02T02:27:11.131Z,11.83
2023-05-02T02:29:38.069Z,11.80
2023-05-02T02:32:05.372Z,11.71
2023-05-02T02:34:32.402Z,11.68
2023-05-02T02:37:27.891Z,11.57
2023-05-02T02:40:21.889Z,11.53
2023-05-02T02:43:07.535Z,11.41
2023-05-02T02:45:48.539Z,11.36
2023-05-02T02:48:32.119Z,11.33
2023-05-02T02:51:01.845Z,11.30
2023-05-02T02:53:45.056Z,11.27
2023-05-02T02:56:20.149Z,11.27
2023-05-02T02:59:08.151Z,11.23
2023-05-02T03:01:39.129Z,11.16
2023-05-02T03:04:09.033Z,11.19
2023-05-02T03:06:36.038Z,11.09
2023-05-02T03:09:04.284Z,10.98
2023-05-02T03:11:31.127Z,10.98
2023-05-02T03:13:58.204Z,10.95
2023-05-02T03:16:37.898Z,10.91
2023-05-02T03:19:06.873Z,10.80
2023-05-02T03:21:34.559Z,10.76
2023-05-02T03:24:03.053Z,10.66
2023-05-02T03:26:30.145Z,10.68
2023-05-02T03:28:57.458Z,10.62
2023-05-02T03:31:26.414Z,10.60
2023-05-02T03:33:54.571Z,10.54
2023-05-02T03:36:21.554Z,10.47
2023-05-02T03:38:48.653Z,10.53
2023-05-02T03:41:15.587Z,10.56
2023-05-02T03:43:42.655Z,10.52
2023-05-02T03:46:11.496Z,10.63
2023-05-02T03:48:38.876Z,10.62
2023-05-02T03:51:08.309Z,10.53
2023-05-02T03:53:35.810Z,10.56
2023-05-02T03:56:02.587Z,10.51
2023-05-02T03:58:29.756Z,10.51
2023-05-02T04:00:56.711Z,10.53
2023-05-02T04:03:24.242Z,10.57
2023-05-02T04:05:51.826Z,10.48
2023-05-02T04:08:19.107Z,10.59
2023-05-02T04:10:46.135Z,10.61
2023-05-02T04:13:13.416Z,10.67
2023-05-02T04:15:40.309Z,10.69
2023-05-02T04:18:07.675Z,10.67
2023-05-02T04:20:34.553Z,10.73
2023-05-02T04:23:01.694Z,10.72
2023-05-02T04:25:28.746Z,10.77
2023-05-02T04:27:56.674Z,10.78
2023-05-02T04:30:23.621Z,10.83
2023-05-02T04:32:51.065Z,10.90
2023-05-02T04:35:18.025Z,10.94
2023-05-02T04:37:45.319Z,10.95
2023-05-02T04:40:12.815Z,11.01
2023-05-02T04:42:39.939Z,11.11
2023-05-02T04:45:07.414Z,11.16
2023-05-02T04:47:34.624Z,11.21
2023-05-02T04:50:01.796Z,11.25
2023-05-02T04:52:30.495Z,11.27
2023-05-02T04:54:57.411Z,11.31
2023-05-02T04:57:24.561Z,11.34
2023-05-02T04:59:51.337Z,11.44
2023-05-02T05:02:18.502Z,11.58
2023-05-02T05:04:46.092Z,11.73
2023-05-02T05:07:13.231Z,11.80
2023-05-02T05:09:40.159Z,11.96
2023-05-02T05:12:07.716Z,12.06
2023-05-02T05:14:34.939Z,12.20
2023-05-02T05:17:02.197Z,12.26
2023-05-02T05:19:29.045Z,12.37
2023-05-02T05:21:56.314Z,12.44
2023-05-02T05:24:23.182Z,12.53
2023-05-02T05:26:50.279Z,12.58
2023-05-02T05:29:18.308Z,12.64
2023-05-02T05:31:45.492Z,12.78
2023-05-02T05:34:13.853Z,12.90
2023-05-02T05:36:41.941Z,12.98
2023-05-02T05:39:08.930Z,13.10
2023-05-02T05:41:36.103Z,13.24
2023-05-02T05:44:05.774Z,13.40
2023-05-02T05:46:32.952Z,13.55
2023-05-02T05:48:59.810Z,13.63
2023-05-02T05:51:27.973Z,13.72
2023-05-02T05:53:54.833Z,13.82
2023-05-02T05:56:22.894Z,13.95
2023-05-02T05:58:49.815Z,14.14
2023-05-02T06:01:16.994Z,14.26
2023-05-02T06:03:43.912Z,14.37
2023-05-02T06:06:11.319Z,14.47
2023-05-02T06:08:38.126Z,14.59
2023-05-02T06:11:09.608Z,14.69
2023-05-02T06:13:36.462Z,14.85
2023-05-02T06:16:03.774Z,14.96
2023-05-02T06:18:30.627Z,15.12
2023-05-02T06:20:58.049Z,15.20
2023-05-02T06:23:24.979Z,15.30
2023-05-02T06:25:52.186Z,15.40
2023-05-02T06:28:19.026Z,15.54
2023-05-02T06:30:46.060Z,15.63
2023-05-02T06:33:13.015Z,15.80
2023-05-02T06:35:40.155Z,15.87
2023-05-02T06:38:07.039Z,15.98
2023-05-02T06:40:36.420Z,16.07
2023-05-02T06:43:03.387Z,16.09
2023-05-02T06:45:30.549Z,16.12
2023-05-02T06:47:57.385Z,16.28
2023-05-02T06:50:26.616Z,16.36
2023-05-02T06:52:53.512Z,16.47
2023-05-02T06:55:21.158Z,16.55
2023-05-02T06:57:49.532Z,16.74
2023-05-02T07:00:18.112Z,16.91
2023-05-02T07:02:46.728Z,17.03
2023-05-02T07:05:15.772Z,17.13
2023-05-02T07:07:43.328Z,17.13
2023-05-02T07:10:11.345Z,17.19
2023-05-02T07:12:39.534Z,17.26
2023-05-02T07:15:07.296Z,17.37
2023-05-02T07:17:34.567Z,17.43
2023-05-02T07:20:01.802Z,17.52
2023-05-02T07:22:28.788Z,17.67
2023-05-02T07:25:01.155Z,17.76
2023-05-02T07:27:28.116Z,17.87
2023-05-02T07:29:55.211Z,17.91
2023-05-02T07:32:22.607Z,18.01
2023-05-02T07:34:49.857Z,18.07
2023-05-02T07:37:16.688Z,18.16
2023-05-02T07:39:43.854Z,18.27
2023-05-02T07:42:10.752Z,18.35
2023-05-02T07:44:37.870Z,18.40
2023-05-02T07:47:04.849Z,18.49
2023-05-02T07:49:31.964Z,18.50
2023-05-02T07:51:58.820Z,18.48
2023-05-02T07:54:28.941Z,18.41
2023-05-02T07:56:58.259Z,18.38
2023-05-02T07:59:25.517Z,18.35
2023-05-02T08:01:52.305Z,18.46
2023-05-02T08:04:19.622Z,18.69
2023-05-02T08:06:46.646Z,18.84
2023-05-02T08:09:13.759Z,19.02
2023-05-02T08:11:40.590Z,19.19
2023-05-02T08:14:07.718Z,19.29
2023-05-02T08:16:34.638Z,19.14
2023-05-02T08:19:01.944Z,19.35
2023-05-02T08:21:29.368Z,19.47
2023-05-02T08:23:58.660Z,19.72
2023-05-02T08:26:25.680Z,20.04
2023-05-02T08:28:52.957Z,20.20
2023-05-02T08:31:19.853Z,20.25
2023-05-02T08:33:47.584Z,20.13
2023-05-02T08:36:15.818Z,20.02
2023-05-02T08:38:44.309Z,20.03
2023-05-02T08:41:18.715Z,20.02
2023-05-02T08:43:48.561Z,20.26
2023-05-02T08:46:17.282Z,20.18
2023-05-02T08:48:48.230Z,20.25
2023-05-02T08:51:16.971Z,20.38
2023-05-02T08:53:44.901Z,20.52
2023-05-02T08:56:13.145Z,20.65
2023-05-02T08:58:41.790Z,20.72
2023-05-02T09:01:21.446Z,21.00
2023-05-02T09:03:51.976Z,21.03
2023-05-02T09:06:21.175Z,21.20
2023-05-02T09:08:50.851Z,21.15
2023-05-02T09:11:18.256Z,21.37
2023-05-02T09:13:50.701Z,21.44
2023-05-02T09:16:23.422Z,21.82
2023-05-02T09:18:53.124Z,21.98
2023-05-02T09:21:22.412Z,21.81
2023-05-02T09:23:53.580Z,21.66
2023-05-02T09:26:33.738Z,21.66
2023-05-02T09:29:03.255Z,21.84
2023-05-02T09:34:12.571Z,22.14
2023-05-02T09:36:55.942Z,22.07
2023-05-02T09:39:29.050Z,22.10
2023-05-02T09:41:56.638Z,22.30
2023-05-02T09:44:26.225Z,22.62
2023-05-02T09:46:54.908Z,22.82
2023-05-02T09:49:47.216Z,22.92
2023-05-02T09:52:16.406Z,23.07
2023-05-02T09:54:46.376Z,23.44
2023-05-02T09:57:13.334Z,23.52
2023-05-02T09:59:41.121Z,23.41
2023-05-02T10:02:10.502Z,23.06
2023-05-02T10:04:38.969Z,23.54
2023-05-02T10:07:06.751Z,23.35
2023-05-02T10:09:36.299Z,23.72
2023-05-02T10:12:05.184Z,23.76
2023-05-02T10:14:39.559Z,23.79
2023-05-02T10:17:14.255Z,23.73
2023-05-02T10:19:59.490Z,23.93
2023-05-02T10:22:27.055Z,24.05
2023-05-02T10:24:54.962Z,23.83
2023-05-02T10:27:23.388Z,23.87
2023-05-02T10:29:51.928Z,23.65
2023-05-02T10:32:19.137Z,24.20
2023-05-02T10:34:47.731Z,24.39
2023-05-02T10:37:16.229Z,24.87
2023-05-02T10:39:43.432Z,24.62
2023-05-02T10:42:10.669Z,24.65
2023-05-02T10:44:40.549Z,24.47
2023-05-02T10:47:27.281Z,24.67
2023-05-02T10:50:02.446Z,23.96
2023-05-02T10:52:29.297Z,24.73
2023-05-02T10:55:19.982Z,24.90
2023-05-02T10:57:59.433Z,24.66
2023-05-02T11:00:27.281Z,24.52
2023-05-02T11:02:55.104Z,24.04
2023-05-02T11:05:24.170Z,24.40
2023-05-02T11:08:13.511Z,24.93
2023-05-02T11:10:40.802Z,24.79
2023-05-02T11:13:07.648Z,24.80
2023-05-02T11:15:34.808Z,24.55
2023-05-02T11:18:11.825Z,24.51
2023-05-02T11:20:40.864Z,24.41
2023-05-02T11:23:22.840Z,24.19
2023-05-02T11:25:52.252Z,23.75
2023-05-02T11:28:34.415Z,23.98
2023-05-02T11:31:01.594Z,24.41
2023-05-02T11:33:29.213Z,24.84
2023-05-02T11:35:59.616Z,25.00
2023-05-02T11:38:35.125Z,25.07
2023-05-02T11:41:04.268Z,25.44
2023-05-02T11:43:32.418Z,25.40
2023-05-02T11:46:02.176Z,25.29
2023-05-02T11:48:30.694Z,25.10
2023-05-02T11:51:03.693Z,25.19
2023-05-02T11:53:31.577Z,24.75
2023-05-02T11:56:03.545Z,24.61
2023-05-02T11:58:33.474Z,24.39
2023-05-02T12:01:17.410Z,24.14
2023-05-02T12:03:45.182Z,24.18
2023-05-02T12:06:15.147Z,24.36
2023-05-02T12:08:45.657Z,24.45
2023-05-02T12:11:13.984Z,24.53
2023-05-02T12:13:48.740Z,24.49
2023-05-02T12:16:17.555Z,24.25
2023-05-02T12:18:45.721Z,24.16
2023-05-02T12:21:13.073Z,24.01
2023-05-02T12:23:43.097Z,24.18
2023-05-02T12:26:25.681Z,24.25
2023-05-02T12:28:54.777Z,24.21
2023-05-02T12:31:22.681Z,24.29
2023-05-02T12:33:51.085Z,24.11
2023-05-02T12:36:21.681Z,24.64
2023-05-02T12:38:54.570Z,24.66
2023-05-02T12:41:32.028Z,24.73
2023-05-02T12:44:00.704Z,24.61
2023-05-02T12:46:28.541Z,25.17
2023-05-02T12:49:09.742Z,25.51
2023-05-02T12:51:37.893Z,25.30
2023-05-02T12:54:05.399Z,25.14
2023-05-02T12:56:43.869Z,25.33
2023-05-02T12:59:28.600Z,25.18
2023-05-02T13:01:55.778Z,24.56
2023-05-02T13:04:22.760Z,24.63
2023-05-02T13:06:49.925Z,24.12
2023-05-02T13:09:17.176Z,24.12
2023-05-02T13:11:44.486Z,24.03
2023-05-02T13:14:11.598Z,24.03
2023-05-02T13:16:38.858Z,23.77
2023-05-02T13:19:05.817Z,23.61
2023-05-02T13:21:33.056Z,23.39
2023-05-02T13:23:59.987Z,23.39
2023-05-02T13:26:27.068Z,23.34
2023-05-02T13:28:53.925Z,23.27
2023-05-02T13:31:21.050Z,22.97
2023-05-02T13:33:47.944Z,23.00
2023-05-02T13:36:15.072Z,22.96
2023-05-02T13:38:42.281Z,23.04
2023-05-02T13:41:09.467Z,23.04
2023-05-02T13:43:36.356Z,23.18
2023-05-02T13:46:03.548Z,23.22
2023-05-02T13:48:30.483Z,23.17
2023-05-02T13:50:57.610Z,23.22
2023-05-02T13:53:24.990Z,23.14
2023-05-02T13:55:52.130Z,22.96
2023-05-02T13:58:18.978Z,22.98
2023-05-02T14:00:47.333Z,22.89
2023-05-02T14:03:14.536Z,22.83
2023-05-02T14:05:43.726Z,22.80
2023-05-02T14:08:11.346Z,22.69
2023-05-02T14:10:39.116Z,22.61
2023-05-02T14:13:05.983Z,22.46
2023-05-02T14:15:33.132Z,22.35
2023-05-02T14:17:59.977Z,22.32
2023-05-02T14:20:27.174Z,22.30
2023-05-02T14:22:54.066Z,22.35
2023-05-02T14:25:21.166Z,22.42
2023-05-02T14:27:48.046Z,22.60
2023-05-02T14:30:15.372Z,22.64
2023-05-02T14:32:42.378Z,22.63
2023-05-02T14:35:10.069Z,22.73
2023-05-02T14:37:37.009Z,22.76
2023-05-02T14:40:04.741Z,22.72
2023-05-02T14:42:31.972Z,22.72
2023-05-02T14:45:02.285Z,22.62
2023-05-02T14:47:31.287Z,22.61
2023-05-02T14:49:58.637Z,22.67
2023-05-02T14:52:25.600Z,22.71
2023-05-02T14:54:53.313Z,22.66
2023-05-02T14:57:20.432Z,22.68
2023-05-02T14:59:47.572Z,22.61
2023-05-02T15:02:14.578Z,22.55
2023-05-02T15:04:41.862Z,22.53
2023-05-02T15:07:09.102Z,22.47
2023-05-02T15:09:36.527Z,22.50
2023-05-02T15:12:03.508Z,22.46
2023-05-02T15:14:30.667Z,22.43
2023-05-02T15:17:03.750Z,22.44
2023-05-02T15:19:30.973Z,22.01
2023-05-02T15:21:57.852Z,22.03
2023-05-02T15:24:25.072Z,21.95
2023-05-02T15:26:52.153Z,22.01
2023-05-02T15:29:19.688Z,22.02
2023-05-02T15:31:46.566Z,22.12
2023-05-02T15:34:13.928Z,22.16
2023-05-02T15:36:41.110Z,22.22
2023-05-02T15:39:08.364Z,22.31
2023-05-02T15:41:35.372Z,22.37
2023-05-02T15:44:02.517Z,22.35
2023-05-02T15:46:29.349Z,22.37
2023-05-02T15:48:56.551Z,22.35
2023-05-02T15:51:23.348Z,22.36
2023-05-02T15:53:52.426Z,22.50
2023-05-02T15:56:21.271Z,22.58
2023-05-02T15:58:48.998Z,22.51
2023-05-02T16:01:15.947Z,22.28
2023-05-02T16:03:43.254Z,22.26
2023-05-02T16:06:10.224Z,22.32
2023-05-02T16:08:37.442Z,22.39
2023-05-02T16:11:04.388Z,22.42
2023-05-02T16:13:31.751Z,22.40
2023-05-02T16:15:58.743Z,22.34
2023-05-02T16:18:28.546Z,22.31
2023-05-02T16:20:59.566Z,22.31
2023-05-02T16:23:27.266Z,22.32
2023-05-02T16:26:01.550Z,22.26
2023-05-02T16:28:29.143Z,22.24
2023-05-02T16:30:56.186Z,22.25
2023-05-02T16:33:23.575Z,22.22
2023-05-02T16:36:00.488Z,22.15
2023-05-02T16:38:27.666Z,22.11
2023-05-02T16:40:54.442Z,22.01
2023-05-02T16:43:23.706Z,21.99
2023-05-02T16:46:06.665Z,21.83
2023-05-02T16:48:34.547Z,21.71
2023-05-02T16:51:03.294Z,21.79
2023-05-02T16:53:31.966Z,21.74
2023-05-02T16:55:59.677Z,21.70
2023-05-02T16:58:29.870Z,21.59
2023-05-02T17:00:56.935Z,21.57
2023-05-02T17:03:24.186Z,21.65
2023-05-02T17:05:51.045Z,21.60
2023-05-02T17:08:18.141Z,21.37
2023-05-02T17:10:52.601Z,21.25
2023-05-02T17:13:19.834Z,21.02
2023-05-02T17:15:47.019Z,20.76
2023-05-02T17:18:14.374Z,20.63
2023-05-02T17:20:41.544Z,20.22
2023-05-02T17:23:09.810Z,20.21
2023-05-02T17:25:36.743Z,20.09
2023-05-02T17:28:04.159Z,20.03
2023-05-02T17:30:32.150Z,19.94
2023-05-02T17:33:00.642Z,19.92
2023-05-02T17:35:27.772Z,19.82
2023-05-02T17:37:55.353Z,19.71
2023-05-02T17:40:22.275Z,19.63
2023-05-02T17:42:49.453Z,19.54
2023-05-02T17:45:16.806Z,19.50
2023-05-02T17:47:43.955Z,19.47
2023-05-02T17:50:11.026Z,19.44
2023-05-02T17:52:38.907Z,19.34
2023-05-02T17:55:06.870Z,19.32
2023-05-02T17:57:34.029Z,19.26
2023-05-02T18:00:01.424Z,19.24
2023-05-02T18:02:29.040Z,19.21
2023-05-02T18:04:55.909Z,19.24
2023-05-02T18:07:29.036Z,19.18
2023-05-02T18:10:02.239Z,19.20
2023-05-02T18:12:29.783Z,19.14
2023-05-02T18:14:56.558Z,19.08
2023-05-02T18:17:24.285Z,19.08
2023-05-02T18:19:51.118Z,19.08
2023-05-02T18:22:21.968Z,19.00
2023-05-02T18:24:49.894Z,18.76
2023-05-02T18:27:17.747Z,18.69
2023-05-02T18:29:44.589Z,18.59
2023-05-02T18:32:11.792Z,18.50
2023-05-02T18:34:39.255Z,18.48
2023-05-02T18:37:06.951Z,18.31
2023-05-02T18:39:34.487Z,18.18
2023-05-02T18:42:04.542Z,18.12
2023-05-02T18:44:31.503Z,17.94
2023-05-02T18:46:59.111Z,17.85
2023-05-02T18:49:26.313Z,17.78
2023-05-02T18:51:54.600Z,17.72
2023-05-02T18:54:23.341Z,17.69
2023-05-02T18:56:50.551Z,17.56
2023-05-02T18:59:18.989Z,17.48
2023-05-02T19:01:50.934Z,17.40
2023-05-02T19:04:18.539Z,17.28
2023-05-02T19:06:46.220Z,17.17
2023-05-02T19:09:13.713Z,17.18
2023-05-02T19:11:41.371Z,17.13
2023-05-02T19:14:08.531Z,17.07
2023-05-02T19:16:38.077Z,17.05
2023-05-02T19:19:05.158Z,17.09
2023-05-02T19:21:34.006Z,17.10
2023-05-02T19:24:01.886Z,17.14
2023-05-02T19:26:29.168Z,17.14
2023-05-02T19:28:57.041Z,17.19
2023-05-02T19:31:24.438Z,17.13
2023-05-02T19:33:52.032Z,17.12
2023-05-02T19:36:20.378Z,17.10
2023-05-02T19:38:54.561Z,17.07
2023-05-02T19:41:24.986Z,17.02
2023-05-02T19:43:52.446Z,16.96
2023-05-02T19:46:19.958Z,16.89
2023-05-02T19:48:46.906Z,16.79
2023-05-02T19:51:14.121Z,16.66
2023-05-02T19:53:40.879Z,16.50
2023-05-02T19:56:08.412Z,16.31
2023-05-02T19:58:35.549Z,16.31
2023-05-02T20:01:03.624Z,16.28
2023-05-02T20:03:30.588Z,16.21
2023-05-02T20:05:58.544Z,16.07
2023-05-02T20:08:27.809Z,16.02
2023-05-02T20:10:55.906Z,15.95
2023-05-02T20:13:23.075Z,15.89
2023-05-02T20:15:51.171Z,15.84
2023-05-02T20:18:18.198Z,15.78
2023-05-02T20:20:45.898Z,15.72
2023-05-02T20:23:13.442Z,15.65
2023-05-02T20:25:42.324Z,15.39
2023-05-02T20:28:09.779Z,15.15
2023-05-02T20:30:39.074Z,14.97
2023-05-02T20:33:14.882Z,14.83
2023-05-02T20:35:44.682Z,14.84
2023-05-02T20:38:14.713Z,14.87
2023-05-02T20:40:42.757Z,14.93
2023-05-02T20:43:09.692Z,14.90
2023-05-02T20:45:36.911Z,14.94
2023-05-02T20:48:03.927Z,14.99
2023-05-02T20:50:31.296Z,14.85
2023-05-02T20:52:58.215Z,14.76
2023-05-02T20:55:25.551Z,14.67
2023-05-02T20:57:53.316Z,14.61
2023-05-02T21:00:23.879Z,14.57
2023-05-02T21:02:50.894Z,14.56
2023-05-02T21:05:18.173Z,14.49
2023-05-02T21:07:45.139Z,14.45
2023-05-02T21:10:12.475Z,14.47
2023-05-02T21:12:39.529Z,14.49
2023-05-02T21:15:07.567Z,14.40
2023-05-02T21:17:34.503Z,14.48
2023-05-02T21:20:01.898Z,14.53
2023-05-02T21:22:28.949Z,14.52
2023-05-02T21:24:56.142Z,14.54
2023-05-02T21:27:23.274Z,14.50
2023-05-02T21:29:50.710Z,14.45
2023-05-02T21:32:17.526Z,14.46
2023-05-02T21:34:44.699Z,14.51
2023-05-02T21:37:11.541Z,14.49
2023-05-02T21:39:38.826Z,14.47
2023-05-02T21:42:06.026Z,14.49
2023-05-02T21:44:33.142Z,14.47
2023-05-02T21:47:00.059Z,14.44
2023-05-02T21:49:30.006Z,14.35
2023-05-02T21:51:58.349Z,14.36
2023-05-02T21:54:25.971Z,14.38
2023-05-02T21:56:55.735Z,14.29
2023-05-02T21:59:22.829Z,14.24
2023-05-02T22:01:49.751Z,14.25
2023-05-02T22:04:18.040Z,14.22
2023-05-02T22:06:52.009Z,14.17
2023-05-02T22:09:19.619Z,14.14
2023-05-02T22:11:47.158Z,14.17
2023-05-02T22:14:14.267Z,14.24
2023-05-02T22:16:41.097Z,14.23
2023-05-02T22:19:10.725Z,14.21
2023-05-02T22:21:37.517Z,14.20
2023-05-02T22:24:04.962Z,14.14
2023-05-02T22:26:31.900Z,14.10
2023-05-02T22:28:58.984Z,14.08
2023-05-02T22:31:27.175Z,14.10
2023-05-02T22:33:54.298Z,14.13
2023-05-02T22:36:21.114Z,14.14
2023-05-02T22:38:48.173Z,14.14
2023-05-02T22:41:15.087Z,14.12
2023-05-02T22:43:42.261Z,14.11
2023-05-02T22:46:09.130Z,14.15
2023-05-02T22:48:36.225Z,14.15
2023-05-02T22:51:03.152Z,14.14
2023-05-02T22:53:30.317Z,14.13
2023-05-02T22:55:57.073Z,14.12
2023-05-02T22:58:24.248Z,14.10
2023-05-02T23:00:51.175Z,14.00
2023-05-02T23:03:18.381Z,14.01
2023-05-02T23:05:45.407Z,13.94
2023-05-02T23:08:12.720Z,13.89
2023-05-02T23:10:39.544Z,13.94
2023-05-02T23:13:06.700Z,13.86
2023-05-02T23:15:39.927Z,13.90
2023-05-02T23:18:07.189Z,13.89
2023-05-02T23:20:34.209Z,13.87
2023-05-02T23:23:01.430Z,13.82
2023-05-02T23:25:28.251Z,13.79
2023-05-02T23:27:55.487Z,13.79
2023-05-02T23:30:22.725Z,13.78
2023-05-02T23:32:50.112Z,13.80
2023-05-02T23:35:17.132Z,13.81
2023-05-02T23:37:44.537Z,13.82
2023-05-02T23:40:11.554Z,13.80
2023-05-02T23:42:40.251Z,13.77
2023-05-02T23:45:08.847Z,13.77
2023-05-02T23:47:36.637Z,13.72
2023-05-02T23:50:05.443Z,13.78
2023-05-02T23:52:33.390Z,13.76
2023-05-02T23:55:00.285Z,13.80
2023-05-02T23:57:29.661Z,13.84
2023-05-02T23:59:56.723Z,13.86
